sensor_id;sensor_type;location;lat;lon;timestamp;pressure;altitude;pressure_sealevel;temperature;humidity
5703;BME280;2876;51.738;10.050;2022-10-26T00:03:33;99392.97;;;9.56;100.00
5703;BME280;2876;51.738;10.050;2022-10-26T00:09:35;99395.06;;;9.39;100.00
5703;BME280;2876;51.738;10.050;2022-10-26T00:15:41;99398.50;;;9.33;100.00
5703;BME280;2876;51.738;10.050;2022-10-26T00:21:43;99402.22;;;9.54;100.00
5703;BME280;2876;51.738;10.050;2022-10-26T00:27:45;99409.16;;;9.48;100.00
5703;BME280;2876;51.738;10.050;2022-10-26T00:33:54;99402.75;;;9.49;100.00
5703;BME280;2876;51.738;10.050;2022-10-26T00:39:57;99387.41;;;9.58;100.00
5703;BME280;2876;51.738;10.050;2022-10-26T00:45:59;99390.94;;;9.58;100.00
5703;BME280;2876;51.738;10.050;2022-10-26T00:52:02;99387.16;;;9.53;100.00
5703;BME280;2876;51.738;10.050;2022-10-26T00:58:06;99397.41;;;9.49;100.00
5703;BME280;2876;51.738;10.050;2022-10-26T01:04:10;99393.50;;;9.45;100.00
5703;BME280;2876;51.738;10.050;2022-10-26T01:10:13;99389.53;;;9.41;100.00
5703;BME280;2876;51.738;10.050;2022-10-26T01:29:50;99376.41;;;9.46;100.00
5703;BME280;2876;51.738;10.050;2022-10-26T01:42:18;99370.63;;;9.49;100.00
5703;BME280;2876;51.738;10.050;2022-10-26T01:48:24;99372.94;;;9.74;100.00
5703;BME280;2876;51.738;10.050;2022-10-26T01:54:26;99358.50;;;9.75;100.00
5703;BME280;2876;51.738;10.050;2022-10-26T02:00:30;99355.25;;;9.79;100.00
5703;BME280;2876;51.738;10.050;2022-10-26T02:19:42;99336.31;;;10.09;100.00
5703;BME280;2876;51.738;10.050;2022-10-26T02:25:50;99334.63;;;10.01;100.00
5703;BME280;2876;51.738;10.050;2022-10-26T02:31:55;99328.34;;;9.87;100.00
5703;BME280;2876;51.738;10.050;2022-10-26T02:38:00;99318.66;;;9.86;100.00
5703;BME280;2876;51.738;10.050;2022-10-26T02:44:13;99314.47;;;9.77;100.00
5703;BME280;2876;51.738;10.050;2022-10-26T02:50:20;99306.19;;;9.72;100.00
5703;BME280;2876;51.738;10.050;2022-10-26T02:57:00;99305.25;;;9.86;100.00
5703;BME280;2876;51.738;10.050;2022-10-26T03:03:05;99307.84;;;9.73;100.00
5703;BME280;2876;51.738;10.050;2022-10-26T03:09:07;99303.88;;;9.69;100.00
5703;BME280;2876;51.738;10.050;2022-10-26T03:15:09;99298.28;;;9.92;100.00
5703;BME280;2876;51.738;10.050;2022-10-26T03:21:11;99291.75;;;10.01;100.00
5703;BME280;2876;51.738;10.050;2022-10-26T03:27:14;99292.25;;;9.83;100.00
5703;BME280;2876;51.738;10.050;2022-10-26T03:33:16;99293.88;;;9.84;100.00
5703;BME280;2876;51.738;10.050;2022-10-26T03:45:42;99296.81;;;9.89;100.00
5703;BME280;2876;51.738;10.050;2022-10-26T03:51:44;99289.06;;;10.01;100.00
5703;BME280;2876;51.738;10.050;2022-10-26T03:57:46;99294.06;;;10.11;100.00
5703;BME280;2876;51.738;10.050;2022-10-26T04:03:48;99293.31;;;9.89;100.00
5703;BME280;2876;51.738;10.050;2022-10-26T04:09:50;99299.69;;;9.88;100.00
5703;BME280;2876;51.738;10.050;2022-10-26T04:15:52;99295.22;;;9.95;100.00
5703;BME280;2876;51.738;10.050;2022-10-26T04:21:54;99291.88;;;9.86;100.00
5703;BME280;2876;51.738;10.050;2022-10-26T04:27:57;99293.50;;;9.87;100.00
5703;BME280;2876;51.738;10.050;2022-10-26T04:33:59;99287.69;;;9.77;100.00
5703;BME280;2876;51.738;10.050;2022-10-26T04:40:02;99295.38;;;9.87;100.00
5703;BME280;2876;51.738;10.050;2022-10-26T04:46:04;99286.00;;;9.76;100.00
5703;BME280;2876;51.738;10.050;2022-10-26T04:52:06;99299.59;;;9.75;100.00
5703;BME280;2876;51.738;10.050;2022-10-26T04:58:08;99285.47;;;9.59;100.00
5703;BME280;2876;51.738;10.050;2022-10-26T05:04:10;99274.56;;;9.61;100.00
5703;BME280;2876;51.738;10.050;2022-10-26T05:10:12;99279.59;;;9.71;100.00
5703;BME280;2876;51.738;10.050;2022-10-26T05:22:16;99265.38;;;9.70;100.00
5703;BME280;2876;51.738;10.050;2022-10-26T05:28:18;99261.41;;;9.66;100.00
5703;BME280;2876;51.738;10.050;2022-10-26T05:34:20;99267.13;;;9.56;100.00
5703;BME280;2876;51.738;10.050;2022-10-26T05:40:22;99273.63;;;9.75;100.00
5703;BME280;2876;51.738;10.050;2022-10-26T05:47:08;99282.50;;;9.76;100.00
5703;BME280;2876;51.738;10.050;2022-10-26T05:53:10;99290.28;;;9.99;100.00
5703;BME280;2876;51.738;10.050;2022-10-26T05:59:16;99300.59;;;10.02;100.00
5703;BME280;2876;51.738;10.050;2022-10-26T06:05:25;99302.00;;;9.91;100.00
5703;BME280;2876;51.738;10.050;2022-10-26T06:11:28;99310.25;;;9.96;100.00
5703;BME280;2876;51.738;10.050;2022-10-26T06:18:06;99305.75;;;10.03;100.00
5703;BME280;2876;51.738;10.050;2022-10-26T06:24:50;99309.41;;;10.24;100.00
5703;BME280;2876;51.738;10.050;2022-10-26T06:30:57;99311.00;;;10.46;100.00
5703;BME280;2876;51.738;10.050;2022-10-26T06:37:00;99312.84;;;10.46;100.00
5703;BME280;2876;51.738;10.050;2022-10-26T06:43:26;99318.22;;;10.52;100.00
5703;BME280;2876;51.738;10.050;2022-10-26T06:55:43;99331.63;;;11.00;100.00
5703;BME280;2876;51.738;10.050;2022-10-26T07:01:46;99336.34;;;10.98;100.00
5703;BME280;2876;51.738;10.050;2022-10-26T07:07:48;99338.84;;;11.06;100.00
5703;BME280;2876;51.738;10.050;2022-10-26T07:13:50;99344.44;;;11.11;100.00
5703;BME280;2876;51.738;10.050;2022-10-26T07:19:53;99345.75;;;11.42;100.00
5703;BME280;2876;51.738;10.050;2022-10-26T07:25:59;99342.88;;;11.57;100.00
5703;BME280;2876;51.738;10.050;2022-10-26T07:32:01;99350.50;;;11.66;100.00
5703;BME280;2876;51.738;10.050;2022-10-26T07:38:03;99367.28;;;11.88;100.00
5703;BME280;2876;51.738;10.050;2022-10-26T07:44:05;99365.41;;;12.29;100.00
5703;BME280;2876;51.738;10.050;2022-10-26T07:50:09;99372.00;;;12.26;100.00
5703;BME280;2876;51.738;10.050;2022-10-26T07:56:13;99369.06;;;12.48;99.63
5703;BME280;2876;51.738;10.050;2022-10-26T08:02:15;99364.06;;;12.58;100.00
5703;BME280;2876;51.738;10.050;2022-10-26T08:15:21;99363.84;;;13.24;96.65
5703;BME280;2876;51.738;10.050;2022-10-26T08:21:23;99372.34;;;13.14;97.56
5703;BME280;2876;51.738;10.050;2022-10-26T08:27:40;99376.34;;;13.43;96.38
5703;BME280;2876;51.738;10.050;2022-10-26T08:41:43;99368.59;;;14.10;93.51
5703;BME280;2876;51.738;10.050;2022-10-26T08:48:06;99367.66;;;14.41;91.20
5703;BME280;2876;51.738;10.050;2022-10-26T08:54:41;99367.41;;;14.86;89.07
5703;BME280;2876;51.738;10.050;2022-10-26T09:00:47;99378.63;;;15.02;91.24
5703;BME280;2876;51.738;10.050;2022-10-26T09:07:31;99368.69;;;15.44;87.94
5703;BME280;2876;51.738;10.050;2022-10-26T09:27:40;99345.88;;;15.70;84.73
5703;BME280;2876;51.738;10.050;2022-10-26T09:40:57;99363.56;;;15.96;84.74
5703;BME280;2876;51.738;10.050;2022-10-26T09:53:32;99378.81;;;15.67;87.23
5703;BME280;2876;51.738;10.050;2022-10-26T09:59:59;99371.91;;;15.53;88.27
5703;BME280;2876;51.738;10.050;2022-10-26T10:06:22;99385.41;;;15.41;89.53
5703;BME280;2876;51.738;10.050;2022-10-26T10:12:26;99408.16;;;15.33;90.53
5703;BME280;2876;51.738;10.050;2022-10-26T10:18:28;99400.97;;;15.27;91.29
5703;BME280;2876;51.738;10.050;2022-10-26T10:24:51;99413.97;;;15.48;90.28
5703;BME280;2876;51.738;10.050;2022-10-26T10:31:20;99404.72;;;15.56;90.86
5703;BME280;2876;51.738;10.050;2022-10-26T10:37:39;99397.59;;;16.04;89.46
5703;BME280;2876;51.738;10.050;2022-10-26T10:43:52;99415.72;;;16.50;84.49
5703;BME280;2876;51.738;10.050;2022-10-26T10:50:05;99406.31;;;16.41;86.14
5703;BME280;2876;51.738;10.050;2022-10-26T11:02:53;99408.47;;;17.03;84.52
5703;BME280;2876;51.738;10.050;2022-10-26T11:09:17;99411.78;;;17.62;82.19
5703;BME280;2876;51.738;10.050;2022-10-26T11:21:49;99401.28;;;18.11;78.66
5703;BME280;2876;51.738;10.050;2022-10-26T11:28:37;99399.28;;;18.40;76.54
5703;BME280;2876;51.738;10.050;2022-10-26T11:35:39;99407.47;;;18.62;77.11
5703;BME280;2876;51.738;10.050;2022-10-26T11:48:16;99401.22;;;19.22;74.89
5703;BME280;2876;51.738;10.050;2022-10-26T11:54:55;99407.53;;;19.27;72.34
5703;BME280;2876;51.738;10.050;2022-10-26T12:01:08;99416.63;;;19.16;73.67
5703;BME280;2876;51.738;10.050;2022-10-26T12:21:18;99429.66;;;18.54;75.68
5703;BME280;2876;51.738;10.050;2022-10-26T12:33:50;99433.69;;;18.51;77.54
5703;BME280;2876;51.738;10.050;2022-10-26T12:52:31;99438.59;;;19.10;75.00
5703;BME280;2876;51.738;10.050;2022-10-26T13:11:51;99427.50;;;18.72;76.17
5703;BME280;2876;51.738;10.050;2022-10-26T13:24:13;99441.38;;;21.40;68.54
5703;BME280;2876;51.738;10.050;2022-10-26T13:30:34;99458.16;;;22.76;61.26
5703;BME280;2876;51.738;10.050;2022-10-26T13:43:02;99456.78;;;21.14;65.54
5703;BME280;2876;51.738;10.050;2022-10-26T13:49:40;99454.75;;;20.51;68.04
5703;BME280;2876;51.738;10.050;2022-10-26T13:55:53;99447.97;;;19.90;70.79
5703;BME280;2876;51.738;10.050;2022-10-26T14:08:49;99448.72;;;19.36;73.41
5703;BME280;2876;51.738;10.050;2022-10-26T14:14:51;99456.56;;;19.11;75.05
5703;BME280;2876;51.738;10.050;2022-10-26T14:21:18;99463.50;;;19.01;76.02
5703;BME280;2876;51.738;10.050;2022-10-26T14:27:24;99467.50;;;19.16;75.68
5703;BME280;2876;51.738;10.050;2022-10-26T14:33:27;99471.72;;;19.29;75.60
5703;BME280;2876;51.738;10.050;2022-10-26T14:39:41;99472.59;;;18.90;77.25
5703;BME280;2876;51.738;10.050;2022-10-26T14:45:48;99484.69;;;18.66;79.10
5703;BME280;2876;51.738;10.050;2022-10-26T14:52:05;99489.41;;;18.70;79.17
5703;BME280;2876;51.738;10.050;2022-10-26T14:58:29;99503.47;;;18.34;81.35
5703;BME280;2876;51.738;10.050;2022-10-26T15:05:14;99512.88;;;17.97;83.05
5703;BME280;2876;51.738;10.050;2022-10-26T15:11:18;99519.69;;;17.71;84.57
5703;BME280;2876;51.738;10.050;2022-10-26T15:17:24;99514.94;;;17.38;85.86
5703;BME280;2876;51.738;10.050;2022-10-26T15:23:37;99520.53;;;17.20;86.30
5703;BME280;2876;51.738;10.050;2022-10-26T15:29:44;99516.06;;;17.02;86.46
5703;BME280;2876;51.738;10.050;2022-10-26T15:35:46;99524.44;;;16.77;87.82
5703;BME280;2876;51.738;10.050;2022-10-26T15:41:48;99524.16;;;16.55;88.80
5703;BME280;2876;51.738;10.050;2022-10-26T15:47:55;99533.88;;;16.33;89.72
5703;BME280;2876;51.738;10.050;2022-10-26T16:00:15;99545.81;;;15.83;92.02
5703;BME280;2876;51.738;10.050;2022-10-26T16:06:33;99550.94;;;15.55;94.25
5703;BME280;2876;51.738;10.050;2022-10-26T16:12:42;99565.06;;;15.38;95.13
5703;BME280;2876;51.738;10.050;2022-10-26T16:19:02;99570.00;;;15.05;97.43
5703;BME280;2876;51.738;10.050;2022-10-26T16:31:59;99590.31;;;15.07;97.48
5703;BME280;2876;51.738;10.050;2022-10-26T16:38:01;99590.38;;;14.76;99.04
5703;BME280;2876;51.738;10.050;2022-10-26T16:50:14;99610.66;;;14.60;99.41
5703;BME280;2876;51.738;10.050;2022-10-26T16:56:20;99616.19;;;14.40;100.00
5703;BME280;2876;51.738;10.050;2022-10-26T17:02:23;99621.78;;;14.38;100.00
5703;BME280;2876;51.738;10.050;2022-10-26T17:08:26;99623.63;;;14.44;100.00
5703;BME280;2876;51.738;10.050;2022-10-26T17:14:28;99637.53;;;14.41;100.00
5703;BME280;2876;51.738;10.050;2022-10-26T17:20:38;99647.72;;;14.39;100.00
5703;BME280;2876;51.738;10.050;2022-10-26T17:26:42;99654.16;;;14.38;100.00
5703;BME280;2876;51.738;10.050;2022-10-26T17:32:44;99666.22;;;14.36;100.00
5703;BME280;2876;51.738;10.050;2022-10-26T17:38:50;99671.88;;;14.21;100.00
5703;BME280;2876;51.738;10.050;2022-10-26T17:44:55;99690.81;;;14.08;100.00
5703;BME280;2876;51.738;10.050;2022-10-26T17:51:04;99694.47;;;14.33;100.00
5703;BME280;2876;51.738;10.050;2022-10-26T17:57:06;99707.41;;;14.11;100.00
5703;BME280;2876;51.738;10.050;2022-10-26T18:03:08;99715.72;;;14.10;100.00
5703;BME280;2876;51.738;10.050;2022-10-26T18:09:10;99713.22;;;14.15;100.00
5703;BME280;2876;51.738;10.050;2022-10-26T18:21:20;99740.69;;;13.79;100.00
5703;BME280;2876;51.738;10.050;2022-10-26T18:27:23;99746.09;;;13.79;100.00
5703;BME280;2876;51.738;10.050;2022-10-26T18:33:25;99754.13;;;13.99;100.00
5703;BME280;2876;51.738;10.050;2022-10-26T18:39:27;99767.00;;;13.96;100.00
5703;BME280;2876;51.738;10.050;2022-10-26T18:45:31;99768.09;;;13.56;100.00
5703;BME280;2876;51.738;10.050;2022-10-26T18:51:39;99775.56;;;13.74;100.00
5703;BME280;2876;51.738;10.050;2022-10-26T18:57:41;99784.03;;;13.70;100.00
5703;BME280;2876;51.738;10.050;2022-10-26T19:03:44;99788.63;;;13.50;100.00
5703;BME280;2876;51.738;10.050;2022-10-26T19:09:46;99791.94;;;13.45;100.00
5703;BME280;2876;51.738;10.050;2022-10-26T19:16:05;99810.59;;;13.40;100.00
5703;BME280;2876;51.738;10.050;2022-10-26T19:22:22;99821.56;;;13.39;100.00
5703;BME280;2876;51.738;10.050;2022-10-26T19:28:24;99816.41;;;13.51;100.00
5703;BME280;2876;51.738;10.050;2022-10-26T19:34:26;99834.00;;;13.47;100.00
5703;BME280;2876;51.738;10.050;2022-10-26T19:40:28;99844.34;;;13.30;100.00
5703;BME280;2876;51.738;10.050;2022-10-26T19:46:33;99851.19;;;13.26;100.00
5703;BME280;2876;51.738;10.050;2022-10-26T19:52:35;99853.00;;;13.18;100.00
5703;BME280;2876;51.738;10.050;2022-10-26T19:58:37;99863.00;;;13.25;100.00
5703;BME280;2876;51.738;10.050;2022-10-26T20:04:39;99881.78;;;13.11;100.00
5703;BME280;2876;51.738;10.050;2022-10-26T20:16:55;99897.28;;;13.03;100.00
5703;BME280;2876;51.738;10.050;2022-10-26T20:22:57;99893.38;;;13.12;100.00
5703;BME280;2876;51.738;10.050;2022-10-26T20:28:59;99908.69;;;13.11;100.00
5703;BME280;2876;51.738;10.050;2022-10-26T20:35:03;99911.75;;;12.95;100.00
5703;BME280;2876;51.738;10.050;2022-10-26T20:41:09;99910.56;;;13.04;100.00
5703;BME280;2876;51.738;10.050;2022-10-26T20:47:13;99919.84;;;13.02;100.00
5703;BME280;2876;51.738;10.050;2022-10-26T20:53:37;99921.72;;;12.94;100.00
5703;BME280;2876;51.738;10.050;2022-10-26T20:59:48;99921.28;;;12.91;100.00
5703;BME280;2876;51.738;10.050;2022-10-26T21:05:51;99931.16;;;12.77;100.00
5703;BME280;2876;51.738;10.050;2022-10-26T21:18:03;99948.72;;;12.73;100.00
5703;BME280;2876;51.738;10.050;2022-10-26T21:24:34;99945.88;;;12.88;100.00
5703;BME280;2876;51.738;10.050;2022-10-26T21:31:01;99961.22;;;12.87;100.00
5703;BME280;2876;51.738;10.050;2022-10-26T21:37:05;99964.06;;;12.79;100.00
5703;BME280;2876;51.738;10.050;2022-10-26T21:43:11;99960.69;;;12.70;100.00
5703;BME280;2876;51.738;10.050;2022-10-26T21:49:13;99964.34;;;12.56;100.00
5703;BME280;2876;51.738;10.050;2022-10-26T21:55:15;99971.59;;;12.56;100.00
5703;BME280;2876;51.738;10.050;2022-10-26T22:01:28;99963.50;;;12.28;100.00
5703;BME280;2876;51.738;10.050;2022-10-26T22:07:30;99972.06;;;12.38;100.00
5703;BME280;2876;51.738;10.050;2022-10-26T22:13:32;99980.47;;;12.28;100.00
5703;BME280;2876;51.738;10.050;2022-10-26T22:19:34;99972.75;;;12.18;100.00
5703;BME280;2876;51.738;10.050;2022-10-26T22:25:36;99981.00;;;12.17;100.00
5703;BME280;2876;51.738;10.050;2022-10-26T22:31:39;99983.97;;;12.22;100.00
5703;BME280;2876;51.738;10.050;2022-10-26T22:37:44;99984.22;;;12.06;100.00
5703;BME280;2876;51.738;10.050;2022-10-26T22:43:46;99979.03;;;12.04;100.00
5703;BME280;2876;51.738;10.050;2022-10-26T22:49:48;99986.19;;;11.97;100.00
5703;BME280;2876;51.738;10.050;2022-10-26T22:55:50;99987.69;;;12.00;100.00
5703;BME280;2876;51.738;10.050;2022-10-26T23:01:52;99990.50;;;11.91;100.00
5703;BME280;2876;51.738;10.050;2022-10-26T23:07:54;100003.22;;;11.83;100.00
5703;BME280;2876;51.738;10.050;2022-10-26T23:13:59;100006.00;;;11.75;100.00
5703;BME280;2876;51.738;10.050;2022-10-26T23:20:01;100007.91;;;11.81;100.00
5703;BME280;2876;51.738;10.050;2022-10-26T23:26:12;100012.84;;;11.77;100.00
5703;BME280;2876;51.738;10.050;2022-10-26T23:32:15;100024.81;;;11.75;100.00
5703;BME280;2876;51.738;10.050;2022-10-26T23:38:17;100024.22;;;11.79;100.00
5703;BME280;2876;51.738;10.050;2022-10-26T23:44:19;100025.63;;;11.75;100.00
5703;BME280;2876;51.738;10.050;2022-10-26T23:50:21;100033.06;;;11.73;100.00
5703;BME280;2876;51.738;10.050;2022-10-26T23:56:23;100034.66;;;11.82;100.00
